createdAt,value
2024-02-03T00:00:07.309Z,14.75
2024-02-03T00:02:41.369Z,14.77
2024-02-03T00:05:10.426Z,14.78
2024-02-03T00:07:40.453Z,14.79
2024-02-03T00:10:10.169Z,14.79
2024-02-03T00:12:39.636Z,14.77
2024-02-03T00:15:09.610Z,14.78
2024-02-03T00:17:39.547Z,14.76
2024-02-03T00:20:10.374Z,14.77
2024-02-03T00:22:40.599Z,14.78
2024-02-03T00:25:10.335Z,14.80
2024-02-03T00:27:40.057Z,14.79
2024-02-03T00:30:10.993Z,14.80
2024-02-03T00:32:39.629Z,14.80
2024-02-03T00:35:08.937Z,14.80
2024-02-03T00:37:38.118Z,14.81
2024-02-03T00:40:10.449Z,14.80
2024-02-03T00:42:39.080Z,14.81
2024-02-03T00:45:09.043Z,14.83
2024-02-03T00:47:37.694Z,14.83
2024-02-03T00:50:07.346Z,14.84
2024-02-03T00:52:36.183Z,14.83
2024-02-03T00:55:05.318Z,14.83
2024-02-03T00:57:35.349Z,14.85
2024-02-03T01:00:05.138Z,14.83
2024-02-03T01:02:33.820Z,14.85
2024-02-03T01:05:02.545Z,14.85
2024-02-03T01:07:31.243Z,14.85
2024-02-03T01:10:00.294Z,14.85
2024-02-03T01:12:29.268Z,14.84
2024-02-03T01:14:59.992Z,14.86
2024-02-03T01:17:30.301Z,14.85
2024-02-03T01:19:59.121Z,14.83
2024-02-03T01:22:28.185Z,14.81
2024-02-03T01:24:56.907Z,14.83
2024-02-03T01:27:25.433Z,14.85
2024-02-03T01:29:54.959Z,14.85
2024-02-03T01:32:24.906Z,14.85
2024-02-03T01:34:53.596Z,14.85
2024-02-03T01:37:22.295Z,14.85
2024-02-03T01:39:50.954Z,14.85
2024-02-03T01:42:18.933Z,14.87
2024-02-03T01:44:47.505Z,14.86
2024-02-03T01:47:16.879Z,14.86
2024-02-03T01:49:47.238Z,14.87
2024-02-03T01:52:16.505Z,14.87
2024-02-03T01:54:45.398Z,14.87
2024-02-03T01:57:16.760Z,14.88
2024-02-03T01:59:45.940Z,14.87
2024-02-03T02:02:14.552Z,14.88
2024-02-03T02:04:43.464Z,14.88
2024-02-03T02:07:14.075Z,14.88
2024-02-03T02:09:43.044Z,14.88
2024-02-03T02:12:11.977Z,14.88
2024-02-03T02:14:43.869Z,14.89
2024-02-03T02:17:12.772Z,14.89
2024-02-03T02:19:41.608Z,14.89
2024-02-03T02:22:11.692Z,14.89
2024-02-03T02:24:40.251Z,14.88
2024-02-03T02:27:09.131Z,14.90
2024-02-03T02:29:37.720Z,14.89
2024-02-03T02:32:07.499Z,14.89
2024-02-03T02:34:36.153Z,14.90
2024-02-03T02:37:04.857Z,14.91
2024-02-03T02:39:34.950Z,14.92
2024-02-03T02:42:03.619Z,14.92
2024-02-03T02:44:32.343Z,14.93
2024-02-03T02:47:01.079Z,14.93
2024-02-03T02:49:29.734Z,14.94
2024-02-03T02:51:58.454Z,14.96
2024-02-03T02:54:27.060Z,14.95
2024-02-03T02:56:56.974Z,14.94
2024-02-03T02:59:25.557Z,14.94
2024-02-03T03:01:54.101Z,14.95
2024-02-03T03:04:22.915Z,14.96
2024-02-03T03:06:51.540Z,14.97
2024-02-03T03:09:20.191Z,14.98
2024-02-03T03:11:49.007Z,14.98
2024-02-03T03:14:18.899Z,15.01
2024-02-03T03:16:47.606Z,15.00
2024-02-03T03:19:16.467Z,14.99
2024-02-03T03:21:45.267Z,14.99
2024-02-03T03:24:14.620Z,14.99
2024-02-03T03:26:44.340Z,14.98
2024-02-03T03:29:16.436Z,14.97
2024-02-03T03:31:47.172Z,14.98
2024-02-03T03:34:16.175Z,14.98
2024-02-03T03:36:44.718Z,14.99
2024-02-03T03:39:13.306Z,14.99
2024-02-03T03:41:41.865Z,15.00
2024-02-03T03:44:10.341Z,15.01
2024-02-03T03:46:38.792Z,15.00
2024-02-03T03:49:08.888Z,15.00
2024-02-03T03:51:37.574Z,15.02
2024-02-03T03:54:06.587Z,15.02
2024-02-03T03:56:35.071Z,15.01
2024-02-03T03:59:03.406Z,15.02
2024-02-03T04:01:31.992Z,15.03
2024-02-03T04:04:00.582Z,15.03
2024-02-03T04:06:30.508Z,15.03
2024-02-03T04:08:59.230Z,15.04
2024-02-03T04:11:27.668Z,15.05
2024-02-03T04:13:56.218Z,15.05
2024-02-03T04:16:24.761Z,15.05
2024-02-03T04:18:53.375Z,15.06
2024-02-03T04:21:22.005Z,15.06
2024-02-03T04:23:51.736Z,15.06
2024-02-03T04:26:20.645Z,15.07
2024-02-03T04:28:49.168Z,15.07
2024-02-03T04:31:17.803Z,15.06
2024-02-03T04:33:46.371Z,15.07
2024-02-03T04:36:15.046Z,15.07
2024-02-03T04:38:43.610Z,15.07
2024-02-03T04:41:26.088Z,15.08
2024-02-03T04:43:54.792Z,15.08
2024-02-03T04:46:23.653Z,15.08
2024-02-03T04:48:53.467Z,15.07
2024-02-03T04:51:22.178Z,15.09
2024-02-03T04:53:51.011Z,15.08
2024-02-03T04:56:21.065Z,15.08
2024-02-03T04:58:49.541Z,15.08
2024-02-03T05:01:18.263Z,15.08
2024-02-03T05:03:46.808Z,15.08
2024-02-03T05:06:15.535Z,15.08
2024-02-03T05:08:45.634Z,15.07
2024-02-03T05:11:14.749Z,15.06
2024-02-03T05:13:44.637Z,15.08
2024-02-03T05:16:13.214Z,15.07
2024-02-03T05:18:41.784Z,15.08
2024-02-03T05:21:10.447Z,15.06
2024-02-03T05:23:38.839Z,15.07
2024-02-03T05:26:07.262Z,15.08
2024-02-03T05:28:35.667Z,15.08
2024-02-03T05:31:06.366Z,15.07
2024-02-03T05:33:35.710Z,15.08
2024-02-03T05:36:04.516Z,15.07
2024-02-03T05:38:32.964Z,15.06
2024-02-03T05:41:01.598Z,15.06
2024-02-03T05:43:29.967Z,15.07
2024-02-03T05:45:58.559Z,15.07
2024-02-03T05:48:28.586Z,15.07
2024-02-03T05:50:57.185Z,15.07
2024-02-03T05:53:25.755Z,15.07
2024-02-03T05:55:54.131Z,15.07
2024-02-03T05:58:22.666Z,15.05
2024-02-03T06:00:51.744Z,15.06
2024-02-03T06:03:20.671Z,15.06
2024-02-03T06:06:05.820Z,15.07
2024-02-03T06:08:40.723Z,15.07
2024-02-03T06:11:09.377Z,15.08
2024-02-03T06:13:37.944Z,15.08
2024-02-03T06:16:07.109Z,15.07
2024-02-03T06:18:35.582Z,15.06
2024-02-03T06:21:06.241Z,15.07
2024-02-03T06:23:34.721Z,15.06
2024-02-03T06:26:03.098Z,15.08
2024-02-03T06:28:31.570Z,15.07
2024-02-03T06:31:00.418Z,15.08
2024-02-03T06:33:29.588Z,15.07
2024-02-03T06:36:00.637Z,15.07
2024-02-03T06:38:31.221Z,15.09
2024-02-03T06:40:59.689Z,15.07
2024-02-03T06:43:28.231Z,15.08
2024-02-03T06:45:56.738Z,15.08
2024-02-03T06:48:25.471Z,15.09
2024-02-03T06:50:54.982Z,15.10
2024-02-03T06:53:23.377Z,15.11
2024-02-03T06:55:53.447Z,15.12
2024-02-03T06:58:21.835Z,15.11
2024-02-03T07:00:50.795Z,15.12
2024-02-03T07:03:19.742Z,15.11
2024-02-03T07:05:48.548Z,15.11
2024-02-03T07:08:16.993Z,15.13
2024-02-03T07:10:45.530Z,15.15
2024-02-03T07:13:15.260Z,15.15
2024-02-03T07:15:43.791Z,15.14
2024-02-03T07:18:12.418Z,15.14
2024-02-03T07:20:40.955Z,15.14
2024-02-03T07:23:09.494Z,15.15
2024-02-03T07:25:37.905Z,15.16
2024-02-03T07:28:06.796Z,15.15
2024-02-03T07:30:36.688Z,15.17
2024-02-03T07:33:05.938Z,15.17
2024-02-03T07:35:34.582Z,15.17
2024-02-03T07:38:03.306Z,15.17
2024-02-03T07:40:31.749Z,15.17
2024-02-03T07:43:00.525Z,15.17
2024-02-03T07:45:29.244Z,15.19
2024-02-03T07:47:59.119Z,15.18
2024-02-03T07:50:27.636Z,15.17
2024-02-03T07:52:57.141Z,15.18
2024-02-03T07:55:25.669Z,15.17
2024-02-03T07:57:54.165Z,15.17
2024-02-03T08:00:23.928Z,15.17
2024-02-03T08:02:52.457Z,15.18
2024-02-03T08:05:22.240Z,15.19
2024-02-03T08:07:50.874Z,15.18
2024-02-03T08:10:19.465Z,15.19
2024-02-03T08:12:48.012Z,15.19
2024-02-03T08:15:17.027Z,15.21
2024-02-03T08:17:46.229Z,15.21
2024-02-03T08:20:15.703Z,15.21
2024-02-03T08:22:45.762Z,15.21
2024-02-03T08:25:14.190Z,15.22
2024-02-03T08:27:42.829Z,15.22
2024-02-03T08:30:13.285Z,15.23
2024-02-03T08:32:41.659Z,15.23
2024-02-03T08:37:42.195Z,15.24
2024-02-03T08:40:14.203Z,15.24
2024-02-03T08:42:42.972Z,15.25
2024-02-03T08:45:11.635Z,15.26
2024-02-03T08:47:40.670Z,15.27
2024-02-03T08:50:10.088Z,15.26
2024-02-03T08:52:38.575Z,15.26
2024-02-03T08:55:07.882Z,15.27
2024-02-03T08:57:37.717Z,15.28
2024-02-03T09:00:08.283Z,15.29
2024-02-03T09:02:37.202Z,15.30
2024-02-03T09:05:06.977Z,15.30
2024-02-03T09:07:35.893Z,15.30
2024-02-03T09:10:04.598Z,15.31
2024-02-03T09:12:33.242Z,15.33
2024-02-03T09:15:03.148Z,15.33
2024-02-03T09:17:31.918Z,15.34
2024-02-03T09:20:00.680Z,15.34
2024-02-03T09:22:29.196Z,15.36
2024-02-03T09:24:57.792Z,15.36
2024-02-03T09:27:26.239Z,15.37
2024-02-03T09:29:54.728Z,15.37
2024-02-03T09:32:25.005Z,15.37
2024-02-03T09:34:53.503Z,15.40
2024-02-03T09:39:53.879Z,15.40
2024-02-03T09:42:22.812Z,15.41
2024-02-03T09:44:51.984Z,15.41
2024-02-03T09:47:21.068Z,15.44
2024-02-03T09:49:51.012Z,15.44
2024-02-03T09:52:21.477Z,15.44
2024-02-03T09:54:50.150Z,15.46
2024-02-03T09:57:18.948Z,15.48
2024-02-03T09:59:52.744Z,15.50
2024-02-03T10:02:21.294Z,15.50
2024-02-03T10:04:51.472Z,15.50
2024-02-03T10:07:21.403Z,15.51
2024-02-03T10:12:23.575Z,15.49
2024-02-03T10:15:02.474Z,15.50
2024-02-03T10:17:31.433Z,15.49
2024-02-03T10:20:01.392Z,15.49
2024-02-03T10:22:29.929Z,15.49
2024-02-03T10:25:04.278Z,15.50
2024-02-03T10:27:32.740Z,15.49
2024-02-03T10:30:01.180Z,15.50
2024-02-03T10:32:29.795Z,15.52
2024-02-03T10:35:00.802Z,15.53
2024-02-03T10:37:29.431Z,15.53
2024-02-03T10:39:58.180Z,15.53
2024-02-03T10:42:30.023Z,15.55
2024-02-03T10:45:04.564Z,15.54
2024-02-03T10:47:35.635Z,15.54
2024-02-03T10:50:11.391Z,15.54
2024-02-03T10:52:42.211Z,15.53
2024-02-03T10:55:13.773Z,15.53
2024-02-03T10:57:45.425Z,15.51
2024-02-03T11:00:19.786Z,15.52
2024-02-03T11:02:55.058Z,15.51
2024-02-03T11:05:28.005Z,15.50
2024-02-03T11:07:57.105Z,15.50
2024-02-03T11:10:30.731Z,15.50
2024-02-03T11:13:16.777Z,15.50
2024-02-03T11:15:46.227Z,15.50
2024-02-03T11:18:16.165Z,15.52
2024-02-03T11:20:46.077Z,15.52
2024-02-03T11:23:15.668Z,15.54
2024-02-03T11:25:50.780Z,15.55
2024-02-03T11:28:19.371Z,15.55
2024-02-03T11:30:47.784Z,15.56
2024-02-03T11:33:16.347Z,15.58
2024-02-03T11:35:48.951Z,15.59
2024-02-03T11:38:17.450Z,15.59
2024-02-03T11:40:46.453Z,15.60
2024-02-03T11:43:15.465Z,15.60
2024-02-03T11:45:48.244Z,15.62
2024-02-03T11:48:17.160Z,15.63
2024-02-03T11:50:47.303Z,15.63
2024-02-03T11:53:25.306Z,15.66
2024-02-03T11:55:55.158Z,15.65
2024-02-03T11:58:24.735Z,15.65
2024-02-03T12:01:04.253Z,15.67
2024-02-03T12:03:32.884Z,15.68
2024-02-03T12:06:03.353Z,15.68
2024-02-03T12:08:32.780Z,15.69
2024-02-03T12:11:01.300Z,15.70
2024-02-03T12:13:37.693Z,15.70
2024-02-03T12:16:09.701Z,15.70
2024-02-03T12:18:39.701Z,15.70
2024-02-03T12:21:10.221Z,15.71
2024-02-03T12:23:39.723Z,15.72
2024-02-03T12:26:08.364Z,15.73
2024-02-03T12:28:37.005Z,15.74
2024-02-03T12:31:06.019Z,15.74
2024-02-03T12:33:34.714Z,15.73
2024-02-03T12:36:03.821Z,15.74
2024-02-03T12:38:34.000Z,15.77
2024-02-03T12:41:02.519Z,15.77
2024-02-03T12:43:31.020Z,15.78
2024-02-03T12:45:59.430Z,15.80
2024-02-03T12:48:28.012Z,15.79
2024-02-03T12:50:57.517Z,15.79
2024-02-03T12:53:26.323Z,15.81
2024-02-03T12:55:56.870Z,15.82
2024-02-03T12:58:28.228Z,15.80
2024-02-03T13:00:56.956Z,15.80
2024-02-03T13:03:25.594Z,15.80
2024-02-03T13:05:54.447Z,15.80
2024-02-03T13:08:23.286Z,15.81
2024-02-03T13:10:51.866Z,15.82
2024-02-03T13:13:21.688Z,15.84
2024-02-03T13:15:50.173Z,15.85
2024-02-03T13:18:18.688Z,15.84
2024-02-03T13:20:47.253Z,15.86
2024-02-03T13:23:15.758Z,15.86
2024-02-03T13:25:44.280Z,15.86
2024-02-03T13:28:12.824Z,15.87
2024-02-03T13:30:42.640Z,15.89
2024-02-03T13:33:11.584Z,15.89
2024-02-03T13:35:40.387Z,15.88
2024-02-03T13:38:09.218Z,15.88
2024-02-03T13:40:37.876Z,15.88
2024-02-03T13:43:06.476Z,15.89
2024-02-03T13:45:36.131Z,15.88
2024-02-03T13:48:07.940Z,15.88
2024-02-03T13:50:36.507Z,15.87
2024-02-03T13:53:05.484Z,15.90
2024-02-03T13:55:33.965Z,15.90
2024-02-03T13:58:02.574Z,15.90
2024-02-03T14:00:32.381Z,15.90
2024-02-03T14:03:01.521Z,15.89
2024-02-03T14:05:31.550Z,15.90
2024-02-03T14:08:00.250Z,15.89
2024-02-03T14:10:28.951Z,15.89
2024-02-03T14:12:57.607Z,15.89
2024-02-03T14:15:26.120Z,15.90
2024-02-03T14:17:54.696Z,15.91
2024-02-03T14:20:23.556Z,15.91
2024-02-03T14:22:53.434Z,15.91
2024-02-03T14:25:22.130Z,15.91
2024-02-03T14:27:50.581Z,15.90
2024-02-03T14:30:19.127Z,15.90
2024-02-03T14:32:47.673Z,15.91
2024-02-03T14:35:16.639Z,15.91
2024-02-03T14:37:46.254Z,15.90
2024-02-03T14:40:16.932Z,15.92
2024-02-03T14:42:45.631Z,15.90
2024-02-03T14:45:15.977Z,15.91
2024-02-03T14:47:44.384Z,15.91
2024-02-03T14:50:13.487Z,15.91
2024-02-03T14:52:42.288Z,15.93
2024-02-03T14:55:11.117Z,15.92
2024-02-03T14:57:41.050Z,15.93
2024-02-03T15:00:11.352Z,15.94
2024-02-03T15:02:39.989Z,15.92
2024-02-03T15:05:09.779Z,15.93
2024-02-03T15:07:38.735Z,15.93
2024-02-03T15:10:09.209Z,15.95
2024-02-03T15:12:37.978Z,15.96
2024-02-03T15:15:09.109Z,15.95
2024-02-03T15:17:37.735Z,15.94
2024-02-03T15:20:07.300Z,15.94
2024-02-03T15:22:35.914Z,15.93
2024-02-03T15:25:05.960Z,15.94
2024-02-03T15:27:34.451Z,15.95
2024-02-03T15:30:03.340Z,15.94
2024-02-03T15:32:33.225Z,15.94
2024-02-03T15:35:01.948Z,15.93
2024-02-03T15:37:30.587Z,15.93
2024-02-03T15:39:59.236Z,15.94
2024-02-03T15:42:27.773Z,15.93
2024-02-03T15:44:56.921Z,15.95
2024-02-03T15:47:25.443Z,15.94
2024-02-03T15:49:55.700Z,15.94
2024-02-03T15:52:24.461Z,15.96
2024-02-03T15:54:53.298Z,15.95
2024-02-03T15:57:22.177Z,15.93
2024-02-03T15:59:50.681Z,15.95
2024-02-03T16:02:22.206Z,15.94
2024-02-03T16:04:51.971Z,15.94
2024-02-03T16:07:22.390Z,15.94
2024-02-03T16:09:50.928Z,15.93
2024-02-03T16:12:22.754Z,15.93
2024-02-03T16:14:53.996Z,15.94
2024-02-03T16:17:23.616Z,15.94
2024-02-03T16:19:52.281Z,15.93
2024-02-03T16:22:22.467Z,15.94
2024-02-03T16:24:51.678Z,15.94
2024-02-03T16:27:20.192Z,15.93
2024-02-03T16:29:49.170Z,15.93
2024-02-03T16:32:17.726Z,15.94
2024-02-03T16:34:46.342Z,15.94
2024-02-03T16:37:15.169Z,15.95
2024-02-03T16:39:45.078Z,15.96
2024-02-03T16:42:13.857Z,15.95
2024-02-03T16:44:42.508Z,15.95
2024-02-03T16:47:10.995Z,15.96
2024-02-03T16:49:39.903Z,15.96
2024-02-03T16:52:08.572Z,15.97
2024-02-03T16:54:37.235Z,15.97
2024-02-03T16:57:09.759Z,15.96
2024-02-03T16:59:38.353Z,15.94
2024-02-03T17:02:06.873Z,15.94
2024-02-03T17:04:35.641Z,15.95
2024-02-03T17:07:04.343Z,15.95
2024-02-03T17:09:32.826Z,15.95
2024-02-03T17:12:01.778Z,15.95
2024-02-03T17:14:31.554Z,15.96
2024-02-03T17:17:00.202Z,15.95
2024-02-03T17:19:28.808Z,15.96
2024-02-03T17:21:58.844Z,15.94
2024-02-03T17:24:27.738Z,15.93
2024-02-03T17:26:56.150Z,15.94
2024-02-03T17:29:24.715Z,15.94
2024-02-03T17:31:54.469Z,15.94
2024-02-03T17:34:23.096Z,15.95
2024-02-03T17:36:51.611Z,15.95
2024-02-03T17:39:21.763Z,15.95
2024-02-03T17:41:50.256Z,15.95
2024-02-03T17:44:18.823Z,15.93
2024-02-03T17:46:47.403Z,15.94
2024-02-03T17:49:17.323Z,15.95
2024-02-03T17:51:45.924Z,15.95
2024-02-03T17:54:14.437Z,15.93
2024-02-03T17:56:43.259Z,15.93
2024-02-03T17:59:13.931Z,15.90
2024-02-03T18:01:42.556Z,15.89
2024-02-03T18:04:11.172Z,15.89
2024-02-03T18:06:41.015Z,15.87
2024-02-03T18:09:10.212Z,15.87
2024-02-03T18:11:43.381Z,15.89
2024-02-03T18:14:12.004Z,15.91
2024-02-03T18:16:40.613Z,15.93
2024-02-03T18:19:09.931Z,15.93
2024-02-03T18:21:41.667Z,15.95
2024-02-03T18:24:10.229Z,15.95
2024-02-03T18:26:38.787Z,15.97
2024-02-03T18:29:07.180Z,15.97
2024-02-03T18:31:35.693Z,15.97
2024-02-03T18:34:04.370Z,15.98
2024-02-03T18:36:33.265Z,15.97
2024-02-03T18:39:03.765Z,16.00
2024-02-03T18:41:32.286Z,16.00
2024-02-03T18:44:01.020Z,16.00
2024-02-03T18:46:29.628Z,16.01
2024-02-03T18:49:00.341Z,16.00
2024-02-03T18:51:29.236Z,16.01
2024-02-03T18:53:57.825Z,16.00
2024-02-03T18:56:28.362Z,16.01
2024-02-03T18:58:56.738Z,16.02
2024-02-03T19:01:29.431Z,16.03
2024-02-03T19:04:00.810Z,16.02
2024-02-03T19:06:31.420Z,16.02
2024-02-03T19:08:59.939Z,16.01
2024-02-03T19:11:30.326Z,16.01
2024-02-03T19:13:58.800Z,16.01
2024-02-03T19:16:27.412Z,16.00
2024-02-03T19:18:56.013Z,16.00
2024-02-03T19:21:24.578Z,16.01
2024-02-03T19:23:53.036Z,16.01
2024-02-03T19:26:21.898Z,16.02
2024-02-03T19:28:52.327Z,16.03
2024-02-03T19:31:20.902Z,16.02
2024-02-03T19:33:49.524Z,16.03
2024-02-03T19:36:18.119Z,16.04
2024-02-03T19:38:46.620Z,16.03
2024-02-03T19:41:17.733Z,16.02
2024-02-03T19:43:47.271Z,16.03
2024-02-03T19:46:18.046Z,16.04
2024-02-03T19:48:46.905Z,16.04
2024-02-03T19:51:16.453Z,16.05
2024-02-03T19:53:44.953Z,16.03
2024-02-03T19:56:14.113Z,16.04
2024-02-03T19:58:42.691Z,16.03
2024-02-03T20:01:11.379Z,16.04
2024-02-03T20:03:41.375Z,16.05
2024-02-03T20:06:09.932Z,16.04
2024-02-03T20:08:38.735Z,16.05
2024-02-03T20:11:07.282Z,16.04
2024-02-03T20:13:36.073Z,16.05
2024-02-03T20:16:05.578Z,16.06
2024-02-03T20:18:34.672Z,16.06
2024-02-03T20:21:04.974Z,16.05
2024-02-03T20:23:34.190Z,16.06
2024-02-03T20:26:02.904Z,16.04
2024-02-03T20:28:31.414Z,16.04
2024-02-03T20:31:00.060Z,16.03
2024-02-03T20:33:30.804Z,16.05
2024-02-03T20:35:59.794Z,16.05
2024-02-03T20:38:29.634Z,16.06
2024-02-03T20:40:58.113Z,16.07
2024-02-03T20:43:26.901Z,16.05
2024-02-03T20:45:57.138Z,16.06
2024-02-03T20:48:25.978Z,16.06
2024-02-03T20:50:54.981Z,16.09
2024-02-03T20:53:24.309Z,16.10
2024-02-03T20:55:54.346Z,16.11
2024-02-03T20:58:22.991Z,16.10
2024-02-03T21:00:51.777Z,16.10
2024-02-03T21:03:20.692Z,16.12
2024-02-03T21:05:50.227Z,16.12
2024-02-03T21:08:19.063Z,16.11
2024-02-03T21:10:47.799Z,16.11
2024-02-03T21:13:19.579Z,16.12
2024-02-03T21:15:48.724Z,16.11
2024-02-03T21:18:21.002Z,16.11
2024-02-03T21:20:50.518Z,16.10
2024-02-03T21:23:19.231Z,16.11
2024-02-03T21:25:48.189Z,16.09
2024-02-03T21:28:18.342Z,16.11
2024-02-03T21:30:47.038Z,16.09
2024-02-03T21:33:15.776Z,16.09
2024-02-03T21:35:44.758Z,16.09
2024-02-03T21:38:13.166Z,16.07
2024-02-03T21:40:42.063Z,16.10
2024-02-03T21:43:10.764Z,16.10
2024-02-03T21:45:40.825Z,16.10
2024-02-03T21:48:10.261Z,16.11
2024-02-03T21:50:39.000Z,16.10
2024-02-03T21:53:07.710Z,16.11
2024-02-03T21:55:36.206Z,16.10
2024-02-03T21:58:04.882Z,16.09
2024-02-03T22:00:33.858Z,16.08
2024-02-03T22:03:03.806Z,16.08
2024-02-03T22:05:32.372Z,16.08
2024-02-03T22:08:01.202Z,16.07
2024-02-03T22:10:29.724Z,16.09
2024-02-03T22:12:58.387Z,16.09
2024-02-03T22:15:27.068Z,16.10
2024-02-03T22:17:58.836Z,16.09
2024-02-03T22:20:29.016Z,16.11
2024-02-03T22:22:57.588Z,16.11
2024-02-03T22:25:26.271Z,16.11
2024-02-03T22:27:54.681Z,16.10
2024-02-03T22:30:23.317Z,16.11
2024-02-03T22:32:51.964Z,16.09
2024-02-03T22:35:20.807Z,16.10
2024-02-03T22:37:50.608Z,16.10
2024-02-03T22:40:19.354Z,16.08
2024-02-03T22:42:48.256Z,16.09
2024-02-03T22:45:16.977Z,16.10
2024-02-03T22:47:45.590Z,16.10
2024-02-03T22:50:14.467Z,16.09
2024-02-03T22:52:42.967Z,16.10
2024-02-03T22:55:12.881Z,16.11
2024-02-03T22:57:41.277Z,16.10
2024-02-03T23:00:28.569Z,16.10
2024-02-03T23:02:57.377Z,16.07
2024-02-03T23:05:27.218Z,16.06
2024-02-03T23:07:55.743Z,16.07
2024-02-03T23:10:25.568Z,16.08
2024-02-03T23:12:54.518Z,16.06
2024-02-03T23:15:23.690Z,16.07
2024-02-03T23:17:54.315Z,16.07
2024-02-03T23:20:23.519Z,16.09
2024-02-03T23:22:52.591Z,16.10
2024-02-03T23:25:22.978Z,16.10
2024-02-03T23:27:53.837Z,16.11
2024-02-03T23:30:23.541Z,16.11
2024-02-03T23:32:52.487Z,16.11
2024-02-03T23:35:21.478Z,16.11
2024-02-03T23:37:50.097Z,16.11
2024-02-03T23:40:18.979Z,16.11
2024-02-03T23:42:48.273Z,16.11
2024-02-03T23:45:20.971Z,16.13
2024-02-03T23:47:49.691Z,16.12
2024-02-03T23:50:19.284Z,16.13
2024-02-03T23:52:48.136Z,16.14
2024-02-03T23:55:16.950Z,16.13
2024-02-03T23:57:45.645Z,16.14
